sensor_id;sensor_type;location;lat;lon;timestamp;P1;durP1;ratioP1;P2;durP2;ratioP2
36415;SDS011;22447;44.530;18.620;2022-12-18T00:00:58;41.75;;;22.90;;
36415;SDS011;22447;44.530;18.620;2022-12-18T00:03:23;45.13;;;23.83;;
36415;SDS011;22447;44.530;18.620;2022-12-18T00:05:51;43.03;;;22.67;;
36415;SDS011;22447;44.530;18.620;2022-12-18T00:08:18;43.90;;;23.73;;
36415;SDS011;22447;44.530;18.620;2022-12-18T00:10:44;48.13;;;26.05;;
36415;SDS011;22447;44.530;18.620;2022-12-18T00:13:11;51.25;;;23.73;;
36415;SDS011;22447;44.530;18.620;2022-12-18T00:15:38;43.30;;;23.52;;
36415;SDS011;22447;44.530;18.620;2022-12-18T00:18:04;49.30;;;24.58;;
36415;SDS011;22447;44.530;18.620;2022-12-18T00:20:31;45.45;;;24.05;;
36415;SDS011;22447;44.530;18.620;2022-12-18T00:23:00;43.65;;;23.00;;
36415;SDS011;22447;44.530;18.620;2022-12-18T00:25:26;43.78;;;22.35;;
36415;SDS011;22447;44.530;18.620;2022-12-18T00:27:52;43.40;;;22.80;;
36415;SDS011;22447;44.530;18.620;2022-12-18T00:30:18;41.45;;;23.20;;
36415;SDS011;22447;44.530;18.620;2022-12-18T00:32:44;44.65;;;23.70;;
36415;SDS011;22447;44.530;18.620;2022-12-18T00:35:10;41.97;;;22.05;;
36415;SDS011;22447;44.530;18.620;2022-12-18T00:37:36;35.38;;;19.42;;
36415;SDS011;22447;44.530;18.620;2022-12-18T00:40:03;37.63;;;21.05;;
36415;SDS011;22447;44.530;18.620;2022-12-18T00:42:29;38.65;;;20.08;;
36415;SDS011;22447;44.530;18.620;2022-12-18T00:45:14;35.47;;;19.17;;
36415;SDS011;22447;44.530;18.620;2022-12-18T00:47:40;34.92;;;19.67;;
36415;SDS011;22447;44.530;18.620;2022-12-18T00:50:06;35.40;;;18.75;;
36415;SDS011;22447;44.530;18.620;2022-12-18T00:52:33;39.65;;;20.02;;
36415;SDS011;22447;44.530;18.620;2022-12-18T00:54:58;47.72;;;24.60;;
36415;SDS011;22447;44.530;18.620;2022-12-18T00:57:24;41.35;;;21.58;;
36415;SDS011;22447;44.530;18.620;2022-12-18T00:59:50;39.10;;;20.70;;
36415;SDS011;22447;44.530;18.620;2022-12-18T01:02:17;38.17;;;19.95;;
36415;SDS011;22447;44.530;18.620;2022-12-18T01:04:43;33.25;;;18.25;;
36415;SDS011;22447;44.530;18.620;2022-12-18T01:07:09;34.70;;;19.35;;
36415;SDS011;22447;44.530;18.620;2022-12-18T01:09:35;36.25;;;20.48;;
36415;SDS011;22447;44.530;18.620;2022-12-18T01:12:00;38.30;;;20.35;;
36415;SDS011;22447;44.530;18.620;2022-12-18T01:14:26;40.22;;;21.55;;
36415;SDS011;22447;44.530;18.620;2022-12-18T01:16:52;41.42;;;20.58;;
36415;SDS011;22447;44.530;18.620;2022-12-18T01:19:18;36.33;;;19.77;;
36415;SDS011;22447;44.530;18.620;2022-12-18T01:21:45;37.88;;;20.20;;
36415;SDS011;22447;44.530;18.620;2022-12-18T01:24:12;39.55;;;20.15;;
36415;SDS011;22447;44.530;18.620;2022-12-18T01:26:38;39.78;;;20.52;;
36415;SDS011;22447;44.530;18.620;2022-12-18T01:29:04;37.97;;;20.83;;
36415;SDS011;22447;44.530;18.620;2022-12-18T01:31:30;51.60;;;25.88;;
36415;SDS011;22447;44.530;18.620;2022-12-18T01:34:01;57.50;;;27.20;;
36415;SDS011;22447;44.530;18.620;2022-12-18T01:36:28;73.20;;;35.28;;
36415;SDS011;22447;44.530;18.620;2022-12-18T01:38:56;64.47;;;31.58;;
36415;SDS011;22447;44.530;18.620;2022-12-18T01:41:26;46.70;;;25.15;;
36415;SDS011;22447;44.530;18.620;2022-12-18T01:47:20;44.03;;;22.90;;
36415;SDS011;22447;44.530;18.620;2022-12-18T01:49:47;41.75;;;22.17;;
36415;SDS011;22447;44.530;18.620;2022-12-18T01:52:13;39.88;;;21.83;;
36415;SDS011;22447;44.530;18.620;2022-12-18T01:54:40;43.55;;;22.55;;
36415;SDS011;22447;44.530;18.620;2022-12-18T01:57:06;64.32;;;32.85;;
36415;SDS011;22447;44.530;18.620;2022-12-18T01:59:32;59.00;;;29.67;;
36415;SDS011;22447;44.530;18.620;2022-12-18T02:02:01;52.28;;;25.60;;
36415;SDS011;22447;44.530;18.620;2022-12-18T02:04:28;55.83;;;27.00;;
36415;SDS011;22447;44.530;18.620;2022-12-18T02:06:56;54.50;;;27.88;;
36415;SDS011;22447;44.530;18.620;2022-12-18T02:09:41;42.88;;;23.02;;
36415;SDS011;22447;44.530;18.620;2022-12-18T02:12:16;42.17;;;21.48;;
36415;SDS011;22447;44.530;18.620;2022-12-18T02:14:51;37.30;;;19.33;;
36415;SDS011;22447;44.530;18.620;2022-12-18T02:25:55;36.10;;;19.25;;
36415;SDS011;22447;44.530;18.620;2022-12-18T02:28:36;36.65;;;19.00;;
36415;SDS011;22447;44.530;18.620;2022-12-18T02:31:11;26.30;;;14.10;;
36415;SDS011;22447;44.530;18.620;2022-12-18T02:33:40;25.65;;;14.00;;
36415;SDS011;22447;44.530;18.620;2022-12-18T02:36:08;26.17;;;13.57;;
36415;SDS011;22447;44.530;18.620;2022-12-18T02:38:36;23.30;;;13.48;;
36415;SDS011;22447;44.530;18.620;2022-12-18T02:41:10;23.63;;;12.15;;
36415;SDS011;22447;44.530;18.620;2022-12-18T02:43:37;24.60;;;13.27;;
36415;SDS011;22447;44.530;18.620;2022-12-18T02:49:17;27.60;;;12.70;;
36415;SDS011;22447;44.530;18.620;2022-12-18T03:03:39;33.83;;;17.13;;
36415;SDS011;22447;44.530;18.620;2022-12-18T03:06:18;121.72;;;49.45;;
36415;SDS011;22447;44.530;18.620;2022-12-18T03:08:51;129.95;;;57.67;;
36415;SDS011;22447;44.530;18.620;2022-12-18T03:11:28;103.35;;;46.95;;
36415;SDS011;22447;44.530;18.620;2022-12-18T03:14:17;82.05;;;38.63;;
36415;SDS011;22447;44.530;18.620;2022-12-18T03:16:52;81.78;;;38.92;;
36415;SDS011;22447;44.530;18.620;2022-12-18T03:19:24;78.03;;;37.83;;
36415;SDS011;22447;44.530;18.620;2022-12-18T03:21:57;74.90;;;35.20;;
36415;SDS011;22447;44.530;18.620;2022-12-18T03:24:30;64.13;;;31.08;;
36415;SDS011;22447;44.530;18.620;2022-12-18T03:27:02;58.92;;;29.88;;
36415;SDS011;22447;44.530;18.620;2022-12-18T03:30:15;55.08;;;26.77;;
36415;SDS011;22447;44.530;18.620;2022-12-18T03:32:46;107.45;;;48.25;;
36415;SDS011;22447;44.530;18.620;2022-12-18T03:37:43;43.30;;;21.98;;
36415;SDS011;22447;44.530;18.620;2022-12-18T03:40:10;43.97;;;22.83;;
36415;SDS011;22447;44.530;18.620;2022-12-18T03:45:31;33.60;;;18.42;;
36415;SDS011;22447;44.530;18.620;2022-12-18T03:48:16;35.33;;;18.52;;
36415;SDS011;22447;44.530;18.620;2022-12-18T03:54:10;36.50;;;18.08;;
36415;SDS011;22447;44.530;18.620;2022-12-18T03:56:11;40.38;;;19.73;;
36415;SDS011;22447;44.530;18.620;2022-12-18T03:58:42;36.70;;;17.63;;
36415;SDS011;22447;44.530;18.620;2022-12-18T04:01:16;34.85;;;17.85;;
36415;SDS011;22447;44.530;18.620;2022-12-18T04:03:44;36.05;;;18.17;;
36415;SDS011;22447;44.530;18.620;2022-12-18T04:06:12;36.67;;;18.17;;
36415;SDS011;22447;44.530;18.620;2022-12-18T04:08:41;36.20;;;16.92;;
36415;SDS011;22447;44.530;18.620;2022-12-18T04:11:10;31.38;;;16.45;;
36415;SDS011;22447;44.530;18.620;2022-12-18T04:13:38;32.08;;;16.25;;
36415;SDS011;22447;44.530;18.620;2022-12-18T04:16:13;35.22;;;17.05;;
36415;SDS011;22447;44.530;18.620;2022-12-18T04:18:41;33.35;;;16.10;;
36415;SDS011;22447;44.530;18.620;2022-12-18T04:21:08;35.40;;;17.52;;
36415;SDS011;22447;44.530;18.620;2022-12-18T04:23:35;34.08;;;16.23;;
36415;SDS011;22447;44.530;18.620;2022-12-18T04:26:01;30.35;;;16.63;;
36415;SDS011;22447;44.530;18.620;2022-12-18T04:29:03;37.72;;;16.90;;
36415;SDS011;22447;44.530;18.620;2022-12-18T04:31:29;35.47;;;16.48;;
36415;SDS011;22447;44.530;18.620;2022-12-18T04:33:55;38.80;;;17.88;;
36415;SDS011;22447;44.530;18.620;2022-12-18T04:36:22;44.40;;;20.40;;
36415;SDS011;22447;44.530;18.620;2022-12-18T04:38:48;47.25;;;18.73;;
36415;SDS011;22447;44.530;18.620;2022-12-18T04:41:17;40.50;;;17.83;;
36415;SDS011;22447;44.530;18.620;2022-12-18T04:43:45;44.38;;;18.10;;
36415;SDS011;22447;44.530;18.620;2022-12-18T04:46:11;48.03;;;18.27;;
36415;SDS011;22447;44.530;18.620;2022-12-18T04:48:37;40.78;;;17.05;;
36415;SDS011;22447;44.530;18.620;2022-12-18T04:51:04;34.53;;;17.10;;
36415;SDS011;22447;44.530;18.620;2022-12-18T04:53:31;37.00;;;17.63;;
36415;SDS011;22447;44.530;18.620;2022-12-18T04:56:08;32.25;;;16.60;;
36415;SDS011;22447;44.530;18.620;2022-12-18T04:58:38;32.08;;;17.25;;
36415;SDS011;22447;44.530;18.620;2022-12-18T05:01:06;37.17;;;16.35;;
36415;SDS011;22447;44.530;18.620;2022-12-18T05:03:33;32.80;;;16.90;;
36415;SDS011;22447;44.530;18.620;2022-12-18T05:06:00;32.58;;;16.67;;
36415;SDS011;22447;44.530;18.620;2022-12-18T05:08:26;31.98;;;16.40;;
36415;SDS011;22447;44.530;18.620;2022-12-18T05:11:02;35.28;;;18.08;;
36415;SDS011;22447;44.530;18.620;2022-12-18T05:13:30;29.52;;;15.27;;
36415;SDS011;22447;44.530;18.620;2022-12-18T05:15:57;33.53;;;17.05;;
36415;SDS011;22447;44.530;18.620;2022-12-18T05:18:23;36.67;;;18.10;;
36415;SDS011;22447;44.530;18.620;2022-12-18T05:20:50;43.25;;;19.73;;
36415;SDS011;22447;44.530;18.620;2022-12-18T05:23:16;41.20;;;17.58;;
36415;SDS011;22447;44.530;18.620;2022-12-18T05:25:46;34.65;;;17.67;;
36415;SDS011;22447;44.530;18.620;2022-12-18T05:28:33;36.45;;;17.88;;
36415;SDS011;22447;44.530;18.620;2022-12-18T05:31:01;34.90;;;16.98;;
36415;SDS011;22447;44.530;18.620;2022-12-18T05:33:29;37.55;;;19.50;;
36415;SDS011;22447;44.530;18.620;2022-12-18T05:35:57;37.03;;;18.52;;
36415;SDS011;22447;44.530;18.620;2022-12-18T05:38:29;33.67;;;17.20;;
36415;SDS011;22447;44.530;18.620;2022-12-18T05:40:56;38.78;;;17.67;;
36415;SDS011;22447;44.530;18.620;2022-12-18T05:43:23;33.05;;;17.13;;
36415;SDS011;22447;44.530;18.620;2022-12-18T05:45:50;32.85;;;17.55;;
36415;SDS011;22447;44.530;18.620;2022-12-18T05:48:18;30.38;;;16.48;;
36415;SDS011;22447;44.530;18.620;2022-12-18T05:50:45;42.85;;;18.20;;
36415;SDS011;22447;44.530;18.620;2022-12-18T05:53:12;31.25;;;16.20;;
36415;SDS011;22447;44.530;18.620;2022-12-18T05:55:40;32.83;;;17.13;;
36415;SDS011;22447;44.530;18.620;2022-12-18T05:58:07;34.33;;;17.30;;
36415;SDS011;22447;44.530;18.620;2022-12-18T06:00:35;33.00;;;16.52;;
36415;SDS011;22447;44.530;18.620;2022-12-18T06:03:06;34.65;;;17.27;;
36415;SDS011;22447;44.530;18.620;2022-12-18T06:05:37;30.90;;;16.65;;
36415;SDS011;22447;44.530;18.620;2022-12-18T06:08:04;33.00;;;16.65;;
36415;SDS011;22447;44.530;18.620;2022-12-18T06:10:31;32.95;;;17.45;;
36415;SDS011;22447;44.530;18.620;2022-12-18T06:12:57;31.67;;;16.45;;
36415;SDS011;22447;44.530;18.620;2022-12-18T06:15:23;30.30;;;15.95;;
36415;SDS011;22447;44.530;18.620;2022-12-18T06:17:49;36.25;;;17.27;;
36415;SDS011;22447;44.530;18.620;2022-12-18T06:20:15;30.92;;;15.20;;
36415;SDS011;22447;44.530;18.620;2022-12-18T06:22:41;29.67;;;15.93;;
36415;SDS011;22447;44.530;18.620;2022-12-18T06:25:07;35.92;;;17.30;;
36415;SDS011;22447;44.530;18.620;2022-12-18T06:27:34;36.13;;;17.48;;
36415;SDS011;22447;44.530;18.620;2022-12-18T06:30:00;30.50;;;16.48;;
36415;SDS011;22447;44.530;18.620;2022-12-18T06:32:26;37.53;;;20.33;;
36415;SDS011;22447;44.530;18.620;2022-12-18T06:34:52;45.50;;;24.75;;
36415;SDS011;22447;44.530;18.620;2022-12-18T06:37:19;43.53;;;22.70;;
36415;SDS011;22447;44.530;18.620;2022-12-18T06:39:45;41.60;;;19.98;;
36415;SDS011;22447;44.530;18.620;2022-12-18T06:42:11;44.90;;;21.15;;
36415;SDS011;22447;44.530;18.620;2022-12-18T06:44:37;38.28;;;20.90;;
36415;SDS011;22447;44.530;18.620;2022-12-18T06:47:03;45.03;;;20.95;;
36415;SDS011;22447;44.530;18.620;2022-12-18T06:49:28;41.92;;;20.00;;
36415;SDS011;22447;44.530;18.620;2022-12-18T06:51:54;37.10;;;18.65;;
36415;SDS011;22447;44.530;18.620;2022-12-18T06:54:20;34.33;;;18.83;;
36415;SDS011;22447;44.530;18.620;2022-12-18T06:56:46;37.95;;;20.05;;
36415;SDS011;22447;44.530;18.620;2022-12-18T06:59:12;42.72;;;19.70;;
36415;SDS011;22447;44.530;18.620;2022-12-18T07:01:39;40.08;;;21.67;;
36415;SDS011;22447;44.530;18.620;2022-12-18T07:04:06;47.55;;;22.33;;
36415;SDS011;22447;44.530;18.620;2022-12-18T07:06:31;49.20;;;23.02;;
36415;SDS011;22447;44.530;18.620;2022-12-18T07:08:57;49.58;;;21.63;;
36415;SDS011;22447;44.530;18.620;2022-12-18T07:11:24;42.88;;;22.10;;
36415;SDS011;22447;44.530;18.620;2022-12-18T07:13:50;48.63;;;23.27;;
36415;SDS011;22447;44.530;18.620;2022-12-18T07:16:18;51.25;;;23.85;;
36415;SDS011;22447;44.530;18.620;2022-12-18T07:18:45;45.67;;;22.58;;
36415;SDS011;22447;44.530;18.620;2022-12-18T07:21:15;49.95;;;23.45;;
36415;SDS011;22447;44.530;18.620;2022-12-18T07:23:42;46.15;;;22.05;;
36415;SDS011;22447;44.530;18.620;2022-12-18T07:26:10;48.67;;;23.80;;
36415;SDS011;22447;44.530;18.620;2022-12-18T07:28:37;48.47;;;23.48;;
36415;SDS011;22447;44.530;18.620;2022-12-18T07:31:09;45.35;;;23.20;;
36415;SDS011;22447;44.530;18.620;2022-12-18T07:33:45;50.53;;;25.20;;
36415;SDS011;22447;44.530;18.620;2022-12-18T07:36:12;44.35;;;23.17;;
36415;SDS011;22447;44.530;18.620;2022-12-18T07:38:38;46.95;;;22.77;;
36415;SDS011;22447;44.530;18.620;2022-12-18T07:41:08;52.00;;;26.17;;
36415;SDS011;22447;44.530;18.620;2022-12-18T07:43:36;57.00;;;28.55;;
36415;SDS011;22447;44.530;18.620;2022-12-18T07:46:02;45.67;;;21.60;;
36415;SDS011;22447;44.530;18.620;2022-12-18T07:48:29;42.10;;;21.48;;
36415;SDS011;22447;44.530;18.620;2022-12-18T07:51:02;49.50;;;24.50;;
36415;SDS011;22447;44.530;18.620;2022-12-18T07:53:29;219.15;;;103.80;;
36415;SDS011;22447;44.530;18.620;2022-12-18T07:55:56;121.85;;;55.00;;
36415;SDS011;22447;44.530;18.620;2022-12-18T07:58:23;76.03;;;36.70;;
36415;SDS011;22447;44.530;18.620;2022-12-18T08:00:49;82.10;;;39.25;;
36415;SDS011;22447;44.530;18.620;2022-12-18T08:03:15;87.00;;;39.85;;
36415;SDS011;22447;44.530;18.620;2022-12-18T08:05:41;125.28;;;52.67;;
36415;SDS011;22447;44.530;18.620;2022-12-18T08:08:07;141.93;;;60.42;;
36415;SDS011;22447;44.530;18.620;2022-12-18T08:10:33;94.72;;;41.42;;
36415;SDS011;22447;44.530;18.620;2022-12-18T08:12:58;75.45;;;35.20;;
36415;SDS011;22447;44.530;18.620;2022-12-18T08:15:24;68.32;;;33.83;;
36415;SDS011;22447;44.530;18.620;2022-12-18T08:17:50;79.63;;;35.22;;
36415;SDS011;22447;44.530;18.620;2022-12-18T08:20:16;70.03;;;31.92;;
36415;SDS011;22447;44.530;18.620;2022-12-18T08:22:43;98.32;;;43.47;;
36415;SDS011;22447;44.530;18.620;2022-12-18T08:25:09;84.85;;;40.13;;
36415;SDS011;22447;44.530;18.620;2022-12-18T08:27:36;61.47;;;28.98;;
36415;SDS011;22447;44.530;18.620;2022-12-18T08:30:02;60.88;;;26.50;;
36415;SDS011;22447;44.530;18.620;2022-12-18T08:32:29;54.67;;;26.70;;
36415;SDS011;22447;44.530;18.620;2022-12-18T08:34:55;52.03;;;25.75;;
36415;SDS011;22447;44.530;18.620;2022-12-18T08:37:21;58.10;;;27.60;;
36415;SDS011;22447;44.530;18.620;2022-12-18T08:39:47;56.30;;;25.73;;
36415;SDS011;22447;44.530;18.620;2022-12-18T08:42:13;56.28;;;27.52;;
36415;SDS011;22447;44.530;18.620;2022-12-18T08:44:57;52.60;;;25.80;;
36415;SDS011;22447;44.530;18.620;2022-12-18T08:47:23;51.85;;;25.35;;
36415;SDS011;22447;44.530;18.620;2022-12-18T08:49:51;61.13;;;26.65;;
36415;SDS011;22447;44.530;18.620;2022-12-18T08:52:17;58.65;;;27.25;;
36415;SDS011;22447;44.530;18.620;2022-12-18T08:54:43;55.00;;;26.08;;
36415;SDS011;22447;44.530;18.620;2022-12-18T08:57:09;53.53;;;26.98;;
36415;SDS011;22447;44.530;18.620;2022-12-18T08:59:34;57.40;;;28.73;;
36415;SDS011;22447;44.530;18.620;2022-12-18T09:02:00;50.00;;;26.95;;
36415;SDS011;22447;44.530;18.620;2022-12-18T09:04:26;42.00;;;23.15;;
36415;SDS011;22447;44.530;18.620;2022-12-18T09:06:55;48.20;;;23.40;;
36415;SDS011;22447;44.530;18.620;2022-12-18T09:09:21;39.28;;;22.08;;
36415;SDS011;22447;44.530;18.620;2022-12-18T09:11:47;41.70;;;21.02;;
36415;SDS011;22447;44.530;18.620;2022-12-18T09:14:13;43.58;;;24.20;;
36415;SDS011;22447;44.530;18.620;2022-12-18T09:16:39;50.33;;;25.83;;
36415;SDS011;22447;44.530;18.620;2022-12-18T09:19:05;52.95;;;27.08;;
36415;SDS011;22447;44.530;18.620;2022-12-18T09:21:32;48.80;;;25.17;;
36415;SDS011;22447;44.530;18.620;2022-12-18T09:24:03;49.95;;;23.55;;
36415;SDS011;22447;44.530;18.620;2022-12-18T09:26:29;46.78;;;22.98;;
36415;SDS011;22447;44.530;18.620;2022-12-18T09:28:55;46.28;;;23.45;;
36415;SDS011;22447;44.530;18.620;2022-12-18T09:31:22;45.35;;;24.10;;
36415;SDS011;22447;44.530;18.620;2022-12-18T09:33:48;46.22;;;24.08;;
36415;SDS011;22447;44.530;18.620;2022-12-18T09:36:15;53.00;;;24.98;;
36415;SDS011;22447;44.530;18.620;2022-12-18T09:38:43;47.00;;;24.05;;
36415;SDS011;22447;44.530;18.620;2022-12-18T09:44:10;38.88;;;20.55;;
36415;SDS011;22447;44.530;18.620;2022-12-18T09:49:26;35.30;;;19.70;;
36415;SDS011;22447;44.530;18.620;2022-12-18T09:52:37;35.70;;;19.55;;
36415;SDS011;22447;44.530;18.620;2022-12-18T09:55:00;42.85;;;21.63;;
36415;SDS011;22447;44.530;18.620;2022-12-18T09:57:28;59.38;;;23.05;;
36415;SDS011;22447;44.530;18.620;2022-12-18T09:59:58;40.55;;;21.05;;
36415;SDS011;22447;44.530;18.620;2022-12-18T10:02:36;45.33;;;20.45;;
36415;SDS011;22447;44.530;18.620;2022-12-18T10:05:12;34.38;;;18.90;;
36415;SDS011;22447;44.530;18.620;2022-12-18T10:13:06;35.65;;;18.35;;
36415;SDS011;22447;44.530;18.620;2022-12-18T10:15:40;28.88;;;16.90;;
36415;SDS011;22447;44.530;18.620;2022-12-18T10:18:15;33.03;;;17.42;;
36415;SDS011;22447;44.530;18.620;2022-12-18T10:23:25;31.80;;;16.52;;
36415;SDS011;22447;44.530;18.620;2022-12-18T10:26:03;40.88;;;18.58;;
36415;SDS011;22447;44.530;18.620;2022-12-18T10:28:31;29.63;;;16.20;;
36415;SDS011;22447;44.530;18.620;2022-12-18T10:31:04;33.97;;;16.75;;
36415;SDS011;22447;44.530;18.620;2022-12-18T10:33:32;40.47;;;18.70;;
36415;SDS011;22447;44.530;18.620;2022-12-18T10:35:59;32.13;;;16.98;;
36415;SDS011;22447;44.530;18.620;2022-12-18T10:38:29;44.20;;;25.10;;
36415;SDS011;22447;44.530;18.620;2022-12-18T10:40:58;45.78;;;24.92;;
36415;SDS011;22447;44.530;18.620;2022-12-18T10:48:34;39.05;;;20.45;;
36415;SDS011;22447;44.530;18.620;2022-12-18T10:51:05;32.33;;;18.73;;
36415;SDS011;22447;44.530;18.620;2022-12-18T10:53:33;35.13;;;18.75;;
36415;SDS011;22447;44.530;18.620;2022-12-18T10:56:00;43.45;;;23.92;;
36415;SDS011;22447;44.530;18.620;2022-12-18T10:58:29;48.08;;;25.23;;
36415;SDS011;22447;44.530;18.620;2022-12-18T11:01:05;42.83;;;24.27;;
36415;SDS011;22447;44.530;18.620;2022-12-18T11:06:10;47.50;;;24.63;;
36415;SDS011;22447;44.530;18.620;2022-12-18T11:08:41;41.35;;;21.33;;
36415;SDS011;22447;44.530;18.620;2022-12-18T11:11:42;35.42;;;19.63;;
36415;SDS011;22447;44.530;18.620;2022-12-18T11:14:06;35.47;;;19.85;;
36415;SDS011;22447;44.530;18.620;2022-12-18T11:16:46;37.63;;;20.35;;
36415;SDS011;22447;44.530;18.620;2022-12-18T11:19:28;36.50;;;20.50;;
36415;SDS011;22447;44.530;18.620;2022-12-18T11:21:58;34.67;;;19.20;;
36415;SDS011;22447;44.530;18.620;2022-12-18T11:24:32;40.95;;;21.42;;
36415;SDS011;22447;44.530;18.620;2022-12-18T11:27:01;43.00;;;22.73;;
36415;SDS011;22447;44.530;18.620;2022-12-18T11:29:31;40.85;;;22.67;;
36415;SDS011;22447;44.530;18.620;2022-12-18T11:35:03;34.45;;;19.23;;
36415;SDS011;22447;44.530;18.620;2022-12-18T11:37:43;39.25;;;20.45;;
36415;SDS011;22447;44.530;18.620;2022-12-18T11:40:16;38.08;;;20.67;;
36415;SDS011;22447;44.530;18.620;2022-12-18T11:42:47;34.30;;;18.42;;
36415;SDS011;22447;44.530;18.620;2022-12-18T11:45:33;40.05;;;22.42;;
36415;SDS011;22447;44.530;18.620;2022-12-18T11:48:03;40.17;;;19.55;;
36415;SDS011;22447;44.530;18.620;2022-12-18T11:53:13;39.00;;;20.85;;
36415;SDS011;22447;44.530;18.620;2022-12-18T11:55:41;40.53;;;22.02;;
36415;SDS011;22447;44.530;18.620;2022-12-18T12:07:14;35.67;;;17.90;;
36415;SDS011;22447;44.530;18.620;2022-12-18T12:15:42;36.17;;;17.92;;
36415;SDS011;22447;44.530;18.620;2022-12-18T12:37:00;54.85;;;28.50;;
36415;SDS011;22447;44.530;18.620;2022-12-18T12:39:49;50.33;;;28.02;;
36415;SDS011;22447;44.530;18.620;2022-12-18T12:45:43;52.03;;;27.75;;
36415;SDS011;22447;44.530;18.620;2022-12-18T12:48:56;54.85;;;28.23;;
36415;SDS011;22447;44.530;18.620;2022-12-18T12:51:19;64.15;;;28.27;;
36415;SDS011;22447;44.530;18.620;2022-12-18T12:53:58;56.13;;;30.15;;
36415;SDS011;22447;44.530;18.620;2022-12-18T12:56:29;47.88;;;27.00;;
36415;SDS011;22447;44.530;18.620;2022-12-18T13:04:21;51.72;;;27.08;;
36415;SDS011;22447;44.530;18.620;2022-12-18T13:12:57;53.72;;;27.00;;
36415;SDS011;22447;44.530;18.620;2022-12-18T13:18:05;62.60;;;29.35;;
36415;SDS011;22447;44.530;18.620;2022-12-18T13:20:40;53.90;;;27.90;;
36415;SDS011;22447;44.530;18.620;2022-12-18T13:31:12;52.80;;;26.70;;
36415;SDS011;22447;44.530;18.620;2022-12-18T13:33:42;47.05;;;26.75;;
36415;SDS011;22447;44.530;18.620;2022-12-18T13:38:47;61.30;;;31.40;;
36415;SDS011;22447;44.530;18.620;2022-12-18T13:41:42;63.63;;;30.85;;
36415;SDS011;22447;44.530;18.620;2022-12-18T13:46:58;55.97;;;29.45;;
36415;SDS011;22447;44.530;18.620;2022-12-18T13:49:36;61.13;;;30.05;;
36415;SDS011;22447;44.530;18.620;2022-12-18T13:52:18;59.85;;;30.30;;
36415;SDS011;22447;44.530;18.620;2022-12-18T13:54:54;61.35;;;31.98;;
36415;SDS011;22447;44.530;18.620;2022-12-18T13:57:26;66.72;;;34.30;;
36415;SDS011;22447;44.530;18.620;2022-12-18T14:00:16;67.00;;;33.92;;
36415;SDS011;22447;44.530;18.620;2022-12-18T14:02:53;68.40;;;30.98;;
36415;SDS011;22447;44.530;18.620;2022-12-18T14:07:55;74.60;;;33.65;;
36415;SDS011;22447;44.530;18.620;2022-12-18T14:10:33;80.57;;;36.38;;
36415;SDS011;22447;44.530;18.620;2022-12-18T14:13:04;76.13;;;37.17;;
36415;SDS011;22447;44.530;18.620;2022-12-18T14:15:36;72.55;;;36.83;;
36415;SDS011;22447;44.530;18.620;2022-12-18T14:18:20;72.43;;;37.50;;
36415;SDS011;22447;44.530;18.620;2022-12-18T14:20:52;77.15;;;37.97;;
36415;SDS011;22447;44.530;18.620;2022-12-18T14:23:28;77.38;;;38.03;;
36415;SDS011;22447;44.530;18.620;2022-12-18T14:25:54;75.65;;;36.65;;
36415;SDS011;22447;44.530;18.620;2022-12-18T14:28:20;76.95;;;38.50;;
36415;SDS011;22447;44.530;18.620;2022-12-18T14:30:47;76.43;;;37.58;;
36415;SDS011;22447;44.530;18.620;2022-12-18T14:33:18;93.15;;;43.95;;
36415;SDS011;22447;44.530;18.620;2022-12-18T14:41:00;81.93;;;38.63;;
36415;SDS011;22447;44.530;18.620;2022-12-18T14:43:36;76.15;;;37.58;;
36415;SDS011;22447;44.530;18.620;2022-12-18T14:46:25;79.22;;;41.33;;
36415;SDS011;22447;44.530;18.620;2022-12-18T14:51:22;87.15;;;40.83;;
36415;SDS011;22447;44.530;18.620;2022-12-18T14:53:56;89.15;;;44.42;;
36415;SDS011;22447;44.530;18.620;2022-12-18T14:56:23;94.75;;;46.60;;
36415;SDS011;22447;44.530;18.620;2022-12-18T14:59:04;94.72;;;44.58;;
36415;SDS011;22447;44.530;18.620;2022-12-18T15:01:47;92.57;;;41.40;;
36415;SDS011;22447;44.530;18.620;2022-12-18T15:04:36;82.50;;;39.60;;
36415;SDS011;22447;44.530;18.620;2022-12-18T15:07:11;84.30;;;40.92;;
36415;SDS011;22447;44.530;18.620;2022-12-18T15:09:38;78.82;;;41.63;;
36415;SDS011;22447;44.530;18.620;2022-12-18T15:12:15;116.07;;;50.85;;
36415;SDS011;22447;44.530;18.620;2022-12-18T15:15:50;101.70;;;42.53;;
36415;SDS011;22447;44.530;18.620;2022-12-18T15:20:48;151.32;;;68.13;;
36415;SDS011;22447;44.530;18.620;2022-12-18T15:26:10;267.10;;;115.70;;
36415;SDS011;22447;44.530;18.620;2022-12-18T15:28:54;253.93;;;115.55;;
36415;SDS011;22447;44.530;18.620;2022-12-18T15:31:30;233.18;;;105.50;;
36415;SDS011;22447;44.530;18.620;2022-12-18T15:36:37;160.85;;;75.93;;
36415;SDS011;22447;44.530;18.620;2022-12-18T15:39:04;134.65;;;63.90;;
36415;SDS011;22447;44.530;18.620;2022-12-18T15:41:31;160.18;;;66.57;;
36415;SDS011;22447;44.530;18.620;2022-12-18T15:44:02;166.20;;;71.57;;
36415;SDS011;22447;44.530;18.620;2022-12-18T15:46:42;200.85;;;83.13;;
36415;SDS011;22447;44.530;18.620;2022-12-18T15:49:08;231.98;;;107.95;;
36415;SDS011;22447;44.530;18.620;2022-12-18T15:51:35;243.35;;;114.57;;
36415;SDS011;22447;44.530;18.620;2022-12-18T15:54:03;247.88;;;114.43;;
36415;SDS011;22447;44.530;18.620;2022-12-18T15:56:31;218.45;;;98.78;;
36415;SDS011;22447;44.530;18.620;2022-12-18T15:59:17;225.90;;;102.50;;
36415;SDS011;22447;44.530;18.620;2022-12-18T16:01:45;211.95;;;100.47;;
36415;SDS011;22447;44.530;18.620;2022-12-18T16:04:13;245.23;;;114.50;;
36415;SDS011;22447;44.530;18.620;2022-12-18T16:06:41;254.88;;;120.45;;
36415;SDS011;22447;44.530;18.620;2022-12-18T16:09:07;251.13;;;119.05;;
36415;SDS011;22447;44.530;18.620;2022-12-18T16:11:34;244.35;;;119.75;;
36415;SDS011;22447;44.530;18.620;2022-12-18T16:17:01;180.98;;;82.15;;
36415;SDS011;22447;44.530;18.620;2022-12-18T16:19:30;186.68;;;85.47;;
36415;SDS011;22447;44.530;18.620;2022-12-18T16:21:57;252.07;;;118.10;;
36415;SDS011;22447;44.530;18.620;2022-12-18T16:24:28;278.08;;;131.95;;
36415;SDS011;22447;44.530;18.620;2022-12-18T16:26:57;265.27;;;123.68;;
36415;SDS011;22447;44.530;18.620;2022-12-18T16:29:24;248.13;;;114.85;;
36415;SDS011;22447;44.530;18.620;2022-12-18T16:31:55;233.98;;;106.95;;
36415;SDS011;22447;44.530;18.620;2022-12-18T16:34:23;195.10;;;85.65;;
36415;SDS011;22447;44.530;18.620;2022-12-18T16:37:00;162.02;;;73.88;;
36415;SDS011;22447;44.530;18.620;2022-12-18T16:39:28;151.77;;;69.72;;
36415;SDS011;22447;44.530;18.620;2022-12-18T16:41:55;153.48;;;67.38;;
36415;SDS011;22447;44.530;18.620;2022-12-18T16:44:21;150.13;;;69.35;;
36415;SDS011;22447;44.530;18.620;2022-12-18T16:46:47;146.98;;;67.25;;
36415;SDS011;22447;44.530;18.620;2022-12-18T16:49:14;142.68;;;66.82;;
36415;SDS011;22447;44.530;18.620;2022-12-18T16:51:41;142.05;;;68.15;;